createdAt,value
2022-10-02T00:02:20.621Z,9.90
2022-10-02T00:05:00.521Z,9.90
2022-10-02T00:07:55.869Z,9.90
2022-10-02T00:10:36.778Z,9.90
2022-10-02T00:13:11.217Z,9.90
2022-10-02T00:15:42.587Z,9.90
2022-10-02T00:18:14.992Z,9.90
2022-10-02T00:21:12.234Z,9.90
2022-10-02T00:23:41.397Z,9.90
2022-10-02T00:26:17.774Z,9.80
2022-10-02T00:28:52.590Z,9.90
2022-10-02T00:31:31.951Z,9.90
2022-10-02T00:34:21.789Z,9.80
2022-10-02T00:37:12.369Z,9.90
2022-10-02T00:40:01.477Z,9.90
2022-10-02T00:42:34.837Z,9.90
2022-10-02T00:45:20.761Z,9.90
2022-10-02T00:47:59.730Z,9.90
2022-10-02T00:50:39.495Z,9.90
2022-10-02T00:53:45.561Z,9.90
2022-10-02T00:56:30.293Z,9.80
2022-10-02T00:59:27.418Z,9.90
2022-10-02T01:02:05.652Z,9.80
2022-10-02T01:04:38.812Z,9.90
2022-10-02T01:07:10.602Z,9.80
2022-10-02T01:09:39.895Z,9.80
2022-10-02T01:12:08.202Z,9.80
2022-10-02T01:14:38.139Z,9.80
2022-10-02T01:17:23.794Z,9.80
2022-10-02T01:19:51.509Z,9.80
2022-10-02T01:22:31.709Z,9.70
2022-10-02T01:25:02.030Z,9.70
2022-10-02T01:27:30.523Z,9.70
2022-10-02T01:30:04.009Z,9.60
2022-10-02T01:32:33.170Z,9.60
2022-10-02T01:35:01.200Z,9.70
2022-10-02T01:37:32.794Z,9.60
2022-10-02T01:40:06.735Z,9.60
2022-10-02T01:42:34.303Z,9.60
2022-10-02T01:45:04.990Z,9.60
2022-10-02T01:47:53.484Z,9.60
2022-10-02T01:50:20.872Z,9.60
2022-10-02T01:53:26.246Z,9.60
2022-10-02T01:56:24.642Z,9.70
2022-10-02T01:59:20.533Z,9.70
2022-10-02T02:02:05.550Z,9.70
2022-10-02T02:05:05.638Z,9.50
2022-10-02T02:07:52.033Z,9.40
2022-10-02T02:10:41.562Z,9.20
2022-10-02T02:13:19.451Z,9.00
2022-10-02T02:16:00.887Z,8.90
2022-10-02T02:18:50.253Z,8.90
2022-10-02T02:21:26.786Z,8.90
2022-10-02T02:23:57.503Z,8.90
2022-10-02T02:26:28.008Z,8.90
2022-10-02T02:29:05.619Z,8.80
2022-10-02T02:31:47.410Z,8.70
2022-10-02T02:34:19.925Z,8.70
2022-10-02T02:36:53.974Z,8.60
2022-10-02T02:39:40.285Z,8.50
2022-10-02T02:42:15.568Z,8.50
2022-10-02T02:44:53.033Z,8.50
2022-10-02T02:47:25.865Z,8.60
2022-10-02T02:50:05.056Z,8.60
2022-10-02T02:52:47.099Z,8.60
2022-10-02T02:55:27.106Z,8.70
2022-10-02T02:58:05.762Z,8.80
2022-10-02T03:00:33.927Z,8.90
2022-10-02T03:03:01.393Z,9.00
2022-10-02T03:05:29.733Z,9.20
2022-10-02T03:08:02.207Z,9.40
2022-10-02T03:10:56.625Z,9.50
2022-10-02T03:13:23.912Z,9.70
2022-10-02T03:16:11.684Z,9.80
2022-10-02T03:18:57.699Z,9.90
2022-10-02T03:21:55.645Z,9.90
2022-10-02T03:24:29.857Z,10.00
2022-10-02T03:27:10.441Z,10.10
2022-10-02T03:29:51.319Z,10.10
2022-10-02T03:32:20.027Z,10.10
2022-10-02T03:34:48.778Z,10.20
2022-10-02T03:37:17.538Z,10.10
2022-10-02T03:39:45.639Z,10.00
2022-10-02T03:42:14.873Z,9.90
2022-10-02T03:44:43.231Z,9.80
2022-10-02T03:47:10.637Z,9.70
2022-10-02T03:49:38.443Z,9.70
2022-10-02T03:52:07.107Z,9.70
2022-10-02T03:54:38.325Z,9.60
2022-10-02T03:57:19.370Z,9.50
2022-10-02T04:00:09.212Z,9.50
2022-10-02T04:02:44.994Z,9.40
2022-10-02T04:05:39.530Z,9.40
2022-10-02T04:08:21.094Z,9.30
2022-10-02T04:11:03.213Z,9.30
2022-10-02T04:13:52.625Z,9.20
2022-10-02T04:16:36.599Z,9.20
2022-10-02T04:19:15.288Z,9.30
2022-10-02T04:22:37.892Z,9.30
2022-10-02T04:25:24.493Z,9.30
2022-10-02T04:28:04.233Z,9.30
2022-10-02T04:30:32.098Z,9.30
2022-10-02T04:33:12.583Z,9.20
2022-10-02T04:36:04.423Z,9.20
2022-10-02T04:38:34.607Z,9.40
2022-10-02T04:41:40.872Z,9.40
2022-10-02T04:44:30.688Z,9.50
2022-10-02T04:47:10.904Z,9.50
2022-10-02T04:50:00.905Z,9.50
2022-10-02T04:52:52.469Z,9.50
2022-10-02T04:55:48.909Z,9.60
2022-10-02T04:58:27.636Z,9.60
2022-10-02T05:01:05.891Z,9.60
2022-10-02T05:03:50.385Z,9.60
2022-10-02T05:06:50.963Z,9.60
2022-10-02T05:09:32.308Z,9.60
2022-10-02T05:12:11.843Z,9.60
2022-10-02T05:15:03.948Z,9.70
2022-10-02T05:18:18.002Z,9.80
2022-10-02T05:21:20.338Z,9.90
2022-10-02T05:24:18.641Z,9.90
2022-10-02T05:27:08.523Z,9.90
2022-10-02T05:29:46.521Z,9.80
2022-10-02T05:32:46.243Z,9.90
2022-10-02T05:35:37.370Z,9.90
2022-10-02T05:38:35.364Z,10.00
2022-10-02T05:41:26.793Z,10.10
2022-10-02T05:44:03.223Z,10.20
2022-10-02T05:46:45.128Z,10.30
2022-10-02T05:49:15.297Z,10.40
2022-10-02T05:52:00.523Z,10.50
2022-10-02T05:54:41.432Z,10.60
2022-10-02T05:57:35.015Z,10.60
2022-10-02T06:00:21.197Z,10.60
2022-10-02T06:03:08.196Z,10.50
2022-10-02T06:05:48.663Z,10.50
2022-10-02T06:08:21.742Z,10.40
2022-10-02T06:10:54.154Z,10.40
2022-10-02T06:13:26.202Z,10.40
2022-10-02T06:16:01.772Z,10.40
2022-10-02T06:18:33.233Z,10.40
2022-10-02T06:21:11.845Z,10.40
2022-10-02T06:23:50.472Z,10.40
2022-10-02T06:26:41.222Z,10.40
2022-10-02T06:29:27.167Z,10.40
2022-10-02T06:32:21.925Z,10.50
2022-10-02T06:34:50.187Z,10.50
2022-10-02T06:37:36.774Z,10.50
2022-10-02T06:40:26.351Z,10.40
2022-10-02T06:43:03.933Z,10.40
2022-10-02T06:46:01.358Z,10.30
2022-10-02T06:48:58.361Z,10.40
2022-10-02T06:51:59.424Z,10.40
2022-10-02T06:54:47.487Z,10.80
2022-10-02T06:57:20.975Z,11.30
2022-10-02T07:00:16.376Z,12.40
2022-10-02T07:03:23.650Z,12.90
2022-10-02T07:06:00.764Z,14.00
2022-10-02T07:08:39.223Z,14.70
2022-10-02T07:11:28.564Z,13.70
2022-10-02T07:14:27.953Z,14.40
2022-10-02T07:17:22.728Z,13.20
2022-10-02T07:20:04.418Z,12.90
2022-10-02T07:22:55.000Z,13.10
2022-10-02T07:25:48.042Z,13.90
2022-10-02T07:28:54.054Z,16.00
2022-10-02T07:31:29.342Z,17.40
2022-10-02T07:34:28.553Z,16.50
2022-10-02T07:37:27.584Z,15.50
2022-10-02T07:40:42.977Z,14.10
2022-10-02T07:43:34.291Z,13.00
2022-10-02T07:46:16.943Z,12.50
2022-10-02T07:48:55.990Z,12.20
2022-10-02T07:51:50.292Z,12.10
2022-10-02T07:54:56.416Z,12.00
2022-10-02T07:57:59.217Z,12.10
2022-10-02T08:00:31.666Z,12.20
2022-10-02T08:03:12.304Z,13.20
2022-10-02T08:05:52.990Z,13.30
2022-10-02T08:08:28.465Z,14.20
2022-10-02T08:11:13.431Z,14.00
2022-10-02T08:13:47.045Z,13.60
2022-10-02T08:16:16.783Z,15.10
2022-10-02T08:19:15.879Z,17.20
2022-10-02T08:21:52.566Z,18.20
2022-10-02T08:24:43.182Z,16.90
2022-10-02T08:27:19.311Z,17.50
2022-10-02T08:29:56.523Z,18.40
2022-10-02T08:32:34.903Z,20.10
2022-10-02T08:35:13.076Z,19.70
2022-10-02T08:37:45.900Z,20.20
2022-10-02T08:40:48.013Z,19.20
2022-10-02T08:43:41.661Z,18.20
2022-10-02T08:46:32.854Z,20.30
2022-10-02T08:49:21.576Z,19.90
2022-10-02T08:52:19.717Z,18.20
2022-10-02T08:55:12.393Z,17.40
2022-10-02T08:58:12.868Z,16.90
2022-10-02T09:00:53.497Z,17.30
2022-10-02T09:03:55.033Z,16.90
2022-10-02T09:07:04.716Z,16.20
2022-10-02T09:09:46.985Z,15.70
2022-10-02T09:12:33.159Z,15.20
2022-10-02T09:15:16.416Z,14.80
2022-10-02T09:17:54.123Z,14.50
2022-10-02T09:20:43.267Z,14.50
2022-10-02T09:23:50.290Z,14.70
2022-10-02T09:27:04.739Z,15.30
2022-10-02T09:29:48.694Z,15.50
2022-10-02T09:32:43.334Z,15.70
2022-10-02T09:35:38.707Z,16.00
2022-10-02T09:38:39.248Z,17.80
2022-10-02T09:41:52.563Z,19.80
2022-10-02T09:44:44.766Z,19.10
2022-10-02T09:47:44.251Z,16.90
2022-10-02T09:50:59.810Z,15.80
2022-10-02T09:54:10.950Z,15.20
2022-10-02T09:57:00.391Z,14.70
2022-10-02T09:59:51.027Z,14.70
2022-10-02T10:02:43.236Z,14.70
2022-10-02T10:05:16.724Z,14.40
2022-10-02T10:07:54.896Z,13.70
2022-10-02T10:10:53.481Z,13.50
2022-10-02T10:13:26.935Z,13.20
2022-10-02T10:16:33.593Z,13.20
2022-10-02T10:19:27.265Z,16.90
2022-10-02T10:21:57.565Z,20.30
2022-10-02T10:25:21.578Z,21.30
2022-10-02T10:28:00.314Z,22.30
2022-10-02T10:30:39.648Z,21.70
2022-10-02T10:33:35.043Z,23.50
2022-10-02T10:36:34.112Z,24.50
2022-10-02T10:39:27.248Z,25.30
2022-10-02T10:42:13.857Z,26.20
2022-10-02T10:45:08.161Z,26.90
2022-10-02T10:48:14.074Z,27.40
2022-10-02T10:50:54.634Z,28.10
2022-10-02T10:53:51.566Z,29.10
2022-10-02T10:56:36.850Z,29.70
2022-10-02T10:59:37.057Z,30.00
2022-10-02T11:02:43.206Z,30.20
2022-10-02T11:05:31.767Z,29.90
2022-10-02T11:08:45.888Z,26.50
2022-10-02T11:11:27.812Z,24.90
2022-10-02T11:14:35.782Z,22.60
2022-10-02T11:17:42.340Z,21.20
2022-10-02T11:20:09.574Z,19.80
2022-10-02T11:22:55.315Z,18.60
2022-10-02T11:25:44.923Z,18.60
2022-10-02T11:28:30.867Z,18.50
2022-10-02T11:31:17.360Z,20.30
2022-10-02T11:33:57.551Z,24.10
2022-10-02T11:36:43.926Z,27.10
2022-10-02T11:39:44.870Z,27.90
2022-10-02T11:42:26.689Z,27.30
2022-10-02T11:45:15.692Z,24.10
2022-10-02T11:47:55.089Z,24.30
2022-10-02T11:50:42.358Z,26.30
2022-10-02T11:53:32.046Z,26.90
2022-10-02T11:56:40.506Z,27.60
2022-10-02T11:59:28.221Z,28.40
2022-10-02T12:02:18.251Z,28.70
2022-10-02T12:05:05.029Z,29.20
2022-10-02T12:07:45.374Z,29.70
2022-10-02T12:10:41.327Z,29.90
2022-10-02T12:13:18.281Z,30.50
2022-10-02T12:16:00.105Z,29.50
2022-10-02T12:18:45.268Z,27.40
2022-10-02T12:22:04.769Z,24.80
2022-10-02T12:25:20.821Z,24.50
2022-10-02T12:27:57.024Z,22.70
2022-10-02T12:30:35.135Z,21.80
2022-10-02T12:33:08.763Z,25.40
2022-10-02T12:36:05.366Z,27.70
2022-10-02T12:38:57.110Z,29.00
2022-10-02T12:41:42.895Z,29.30
2022-10-02T12:44:39.239Z,29.60
2022-10-02T12:47:29.140Z,30.10
2022-10-02T12:50:23.281Z,30.20
2022-10-02T12:53:08.977Z,30.70
2022-10-02T12:56:01.427Z,30.30
2022-10-02T12:58:54.236Z,30.00
2022-10-02T13:01:54.447Z,30.40
2022-10-02T13:04:51.958Z,30.90
2022-10-02T13:07:31.265Z,31.70
2022-10-02T13:10:03.712Z,31.80
2022-10-02T13:12:58.397Z,27.70
2022-10-02T13:15:48.457Z,23.40
2022-10-02T13:18:33.825Z,21.20
2022-10-02T13:21:11.762Z,21.90
2022-10-02T13:23:53.978Z,22.00
2022-10-02T13:26:40.056Z,21.30
2022-10-02T13:29:25.489Z,21.10
2022-10-02T13:32:20.137Z,21.50
2022-10-02T13:34:59.237Z,20.60
2022-10-02T13:37:51.052Z,19.70
2022-10-02T13:40:48.041Z,19.70
2022-10-02T13:43:27.103Z,19.00
2022-10-02T13:46:17.171Z,18.40
2022-10-02T13:49:18.030Z,18.20
2022-10-02T13:52:12.323Z,18.10
2022-10-02T13:55:04.764Z,18.80
2022-10-02T13:57:45.920Z,19.50
2022-10-02T14:00:23.848Z,18.60
2022-10-02T14:03:29.171Z,18.10
2022-10-02T14:06:30.005Z,17.70
2022-10-02T14:09:21.443Z,17.40
2022-10-02T14:12:06.897Z,17.10
2022-10-02T14:15:03.178Z,16.90
2022-10-02T14:18:07.986Z,16.60
2022-10-02T14:20:49.118Z,16.50
2022-10-02T14:23:50.431Z,16.80
2022-10-02T14:26:40.123Z,16.60
2022-10-02T14:29:28.148Z,16.90
2022-10-02T14:32:25.101Z,17.10
2022-10-02T14:35:17.028Z,17.20
2022-10-02T14:38:20.218Z,17.60
2022-10-02T14:40:54.922Z,18.20
2022-10-02T14:43:42.099Z,18.50
2022-10-02T14:46:28.782Z,17.90
2022-10-02T14:49:16.044Z,17.60
2022-10-02T14:51:57.662Z,17.20
2022-10-02T14:54:34.756Z,16.70
2022-10-02T14:57:33.896Z,16.40
2022-10-02T15:00:14.512Z,16.20
2022-10-02T15:02:48.136Z,15.80
2022-10-02T15:05:45.221Z,15.60
2022-10-02T15:08:30.130Z,15.50
2022-10-02T15:10:58.349Z,15.50
2022-10-02T15:13:44.162Z,15.40
2022-10-02T15:16:34.709Z,15.20
2022-10-02T15:19:16.885Z,14.90
2022-10-02T15:22:02.414Z,14.70
2022-10-02T15:24:48.423Z,14.60
2022-10-02T15:27:44.671Z,14.60
2022-10-02T15:30:23.304Z,14.60
2022-10-02T15:33:12.524Z,14.40
2022-10-02T15:36:03.711Z,14.10
2022-10-02T15:38:31.185Z,14.00
2022-10-02T15:41:32.023Z,13.90
2022-10-02T15:44:18.337Z,13.80
2022-10-02T15:47:10.639Z,13.70
2022-10-02T15:49:50.326Z,13.70
2022-10-02T15:52:27.864Z,13.70
2022-10-02T15:55:32.879Z,13.80
2022-10-02T15:58:28.015Z,13.80
2022-10-02T16:01:01.559Z,14.00
2022-10-02T16:03:53.342Z,14.20
2022-10-02T16:06:53.446Z,14.40
2022-10-02T16:09:36.879Z,14.40
2022-10-02T16:12:22.871Z,14.30
2022-10-02T16:14:56.077Z,14.10
2022-10-02T16:17:37.515Z,13.80
2022-10-02T16:20:42.424Z,13.70
2022-10-02T16:23:32.594Z,13.50
2022-10-02T16:26:18.990Z,13.40
2022-10-02T16:28:49.258Z,13.20
2022-10-02T16:31:39.019Z,13.10
2022-10-02T16:34:14.461Z,13.00
2022-10-02T16:36:42.109Z,12.80
2022-10-02T16:39:36.068Z,12.80
2022-10-02T16:42:22.476Z,12.60
2022-10-02T16:45:01.619Z,12.50
2022-10-02T16:47:50.620Z,12.30
2022-10-02T16:50:44.407Z,12.30
2022-10-02T16:53:31.163Z,12.20
2022-10-02T16:56:25.886Z,12.10
2022-10-02T16:59:04.330Z,12.00
2022-10-02T17:02:16.225Z,12.00
2022-10-02T17:04:51.299Z,11.90
2022-10-02T17:07:27.383Z,11.90
2022-10-02T17:10:37.754Z,11.80
2022-10-02T17:13:19.562Z,11.70
2022-10-02T17:15:54.194Z,11.60
2022-10-02T17:18:38.330Z,11.50
2022-10-02T17:21:17.272Z,11.60
2022-10-02T17:24:15.363Z,11.70
2022-10-02T17:26:52.580Z,11.60
2022-10-02T17:29:40.845Z,11.60
2022-10-02T17:32:09.386Z,11.50
2022-10-02T17:34:59.230Z,11.40
2022-10-02T17:37:57.813Z,11.30
2022-10-02T17:40:28.340Z,11.20
2022-10-02T17:43:06.604Z,11.10
2022-10-02T17:45:50.168Z,11.00
2022-10-02T17:48:39.381Z,10.90
2022-10-02T17:51:51.248Z,10.90
2022-10-02T17:55:10.504Z,10.80
2022-10-02T17:58:13.936Z,10.80
2022-10-02T18:01:05.704Z,10.80
2022-10-02T18:03:59.892Z,10.70
2022-10-02T18:06:58.081Z,10.60
2022-10-02T18:09:34.351Z,10.60
2022-10-02T18:12:20.639Z,10.60
2022-10-02T18:14:48.401Z,10.60
2022-10-02T18:17:51.404Z,10.50
2022-10-02T18:20:35.647Z,10.50
2022-10-02T18:23:08.833Z,10.50
2022-10-02T18:25:50.837Z,10.50
2022-10-02T18:28:56.103Z,10.40
2022-10-02T18:31:53.950Z,10.40
2022-10-02T18:34:54.245Z,10.30
2022-10-02T18:37:33.735Z,10.30
2022-10-02T18:40:22.894Z,10.30
2022-10-02T18:42:50.206Z,10.20
2022-10-02T18:45:43.634Z,10.30
2022-10-02T18:48:29.166Z,10.30
2022-10-02T18:50:57.028Z,10.30
2022-10-02T18:53:51.873Z,10.50
2022-10-02T18:56:43.348Z,10.60
2022-10-02T18:59:30.067Z,10.60
2022-10-02T19:02:21.246Z,10.60
2022-10-02T19:05:24.333Z,10.60
2022-10-02T19:08:03.272Z,10.50
2022-10-02T19:10:30.538Z,10.40
2022-10-02T19:13:17.622Z,10.30
2022-10-02T19:15:48.337Z,10.30
2022-10-02T19:18:23.530Z,10.30
2022-10-02T19:21:12.393Z,10.30
2022-10-02T19:24:15.206Z,10.30
2022-10-02T19:26:45.975Z,10.20
2022-10-02T19:29:16.644Z,10.40
2022-10-02T19:31:44.046Z,10.60
2022-10-02T19:34:17.280Z,10.60
2022-10-02T19:36:50.204Z,10.60
2022-10-02T19:39:27.622Z,10.60
2022-10-02T19:42:03.075Z,10.60
2022-10-02T19:44:32.762Z,10.80
2022-10-02T19:47:11.701Z,10.90
2022-10-02T19:49:40.464Z,10.90
2022-10-02T19:52:46.736Z,11.00
2022-10-02T19:55:30.790Z,11.10
2022-10-02T19:58:08.962Z,11.00
2022-10-02T20:00:43.131Z,10.80
2022-10-02T20:03:16.953Z,10.90
2022-10-02T20:05:47.105Z,11.10
2022-10-02T20:08:23.695Z,11.10
2022-10-02T20:11:30.265Z,11.20
2022-10-02T20:14:25.296Z,11.10
2022-10-02T20:17:11.251Z,11.20
2022-10-02T20:19:52.742Z,11.10
2022-10-02T20:22:36.997Z,11.00
2022-10-02T20:25:28.475Z,11.10
2022-10-02T20:28:05.658Z,11.20
2022-10-02T20:30:41.689Z,11.20
2022-10-02T20:33:26.544Z,11.30
2022-10-02T20:36:14.614Z,11.30
2022-10-02T20:38:52.077Z,11.30
2022-10-02T20:41:23.802Z,11.30
2022-10-02T20:44:02.066Z,11.30
2022-10-02T20:46:45.968Z,11.10
2022-10-02T20:49:28.349Z,11.00
2022-10-02T20:52:19.091Z,10.80
2022-10-02T20:55:07.074Z,10.70
2022-10-02T20:58:01.082Z,10.60
2022-10-02T21:00:52.006Z,10.50
2022-10-02T21:03:36.149Z,10.40
2022-10-02T21:06:41.639Z,10.40
2022-10-02T21:09:30.986Z,10.40
2022-10-02T21:12:13.631Z,10.30
2022-10-02T21:14:55.290Z,10.30
2022-10-02T21:17:41.817Z,10.30
2022-10-02T21:20:09.139Z,10.30
2022-10-02T21:23:14.775Z,10.20
2022-10-02T21:26:05.928Z,10.20
2022-10-02T21:29:10.993Z,10.30
2022-10-02T21:31:52.860Z,10.40
2022-10-02T21:34:31.049Z,10.50
2022-10-02T21:37:47.301Z,10.60
2022-10-02T21:40:55.842Z,10.50
2022-10-02T21:43:54.663Z,10.40
2022-10-02T21:46:58.485Z,10.30
2022-10-02T21:49:48.514Z,10.20
2022-10-02T21:53:05.311Z,10.10
2022-10-02T21:55:58.280Z,10.00
2022-10-02T21:58:53.168Z,10.00
2022-10-02T22:01:29.265Z,10.00
2022-10-02T22:04:20.529Z,10.10
2022-10-02T22:07:10.642Z,10.00
2022-10-02T22:09:57.197Z,9.90
2022-10-02T22:12:57.177Z,9.80
2022-10-02T22:15:46.402Z,9.80
2022-10-02T22:18:36.261Z,9.80
2022-10-02T22:21:18.508Z,9.80
2022-10-02T22:24:14.075Z,10.00
2022-10-02T22:27:00.231Z,10.10
2022-10-02T22:29:44.969Z,10.10
2022-10-02T22:33:08.122Z,10.10
2022-10-02T22:36:13.247Z,10.20
2022-10-02T22:38:49.245Z,10.30
2022-10-02T22:41:27.785Z,10.20
2022-10-02T22:44:01.441Z,10.20
2022-10-02T22:47:01.754Z,10.10
2022-10-02T22:49:59.572Z,10.00
2022-10-02T22:53:01.602Z,9.90
2022-10-02T22:55:34.019Z,9.90
2022-10-02T22:58:05.131Z,9.90
2022-10-02T23:00:50.051Z,9.90
2022-10-02T23:03:24.619Z,9.90
2022-10-02T23:06:03.999Z,9.80
2022-10-02T23:08:57.826Z,9.70
2022-10-02T23:11:40.078Z,9.70
2022-10-02T23:14:13.713Z,9.70
2022-10-02T23:16:49.903Z,9.60
2022-10-02T23:19:58.897Z,9.70
2022-10-02T23:22:33.722Z,9.80
2022-10-02T23:25:22.697Z,9.80
2022-10-02T23:28:29.204Z,9.90
2022-10-02T23:31:22.101Z,10.00
2022-10-02T23:34:06.461Z,9.90
2022-10-02T23:36:46.631Z,9.90
2022-10-02T23:39:29.279Z,9.80
2022-10-02T23:41:58.848Z,9.80
2022-10-02T23:44:39.804Z,9.70
2022-10-02T23:47:37.224Z,9.50
2022-10-02T23:50:28.307Z,9.50
2022-10-02T23:53:16.419Z,9.60
2022-10-02T23:56:12.650Z,9.60
2022-10-02T23:59:06.791Z,9.50
